Time;durP1;ratioP1;P1;durP2;ratioP2;P2;SDS_P1;SDS_P2;PMS_P1;PMS_P2;Temp;Humidity;BMP_temperature;BMP_pressure;BME280_temperature;BME280_humidity;BME280_pressure;Samples;Min_cycle;Max_cycle;Signal;HPM_P1;HPM_P2
2022/07/25 00:01:06;;;;;;;4.17;3.77;;;;;;;23.16;52.18;100607.28;5071905;28;20211;-74
2022/07/25 00:03:32;;;;;;;4.23;3.70;;;;;;;23.13;52.76;100604.81;5071922;28;20207;-74
2022/07/25 00:05:59;;;;;;;3.33;3.13;;;;;;;23.11;52.37;100602.28;5071545;28;20260;-74
2022/07/25 00:08:25;;;;;;;3.73;3.20;;;;;;;23.05;52.01;100607.16;5071417;28;20194;-74
2022/07/25 00:10:53;;;;;;;3.80;3.50;;;;;;;23.04;50.81;100630.28;5071477;28;20207;-74
2022/07/25 00:13:19;;;;;;;3.43;3.30;;;;;;;23.02;50.88;100648.16;5071750;28;20247;-74
2022/07/25 00:15:46;;;;;;;3.77;3.47;;;;;;;23.02;51.48;100623.31;5072342;28;20205;-73
2022/07/25 00:18:12;;;;;;;3.13;2.93;;;;;;;22.99;51.75;100611.91;5075595;28;20285;-74
2022/07/25 00:20:39;;;;;;;3.37;3.17;;;;;;;23.00;52.33;100594.13;5075655;28;20228;-74
2022/07/25 00:23:05;;;;;;;3.50;3.20;;;;;;;22.98;51.52;100588.91;5075518;28;20213;-74
2022/07/25 00:25:32;;;;;;;3.50;3.20;;;;;;;22.96;51.09;100614.78;5075441;28;20273;-74
2022/07/25 00:27:59;;;;;;;3.90;3.43;;;;;;;22.95;50.83;100637.06;5075122;28;20205;-74
2022/07/25 00:30:26;;;;;;;3.40;3.20;;;;;;;22.96;49.64;100646.72;5075214;28;20280;-74
2022/07/25 00:32:53;;;;;;;4.60;3.87;;;;;;;22.97;50.49;100650.25;5075203;28;20215;-74
2022/07/25 00:35:19;;;;;;;3.80;3.50;;;;;;;22.92;50.71;100631.06;5075214;28;20240;-73
2022/07/25 00:37:46;;;;;;;3.80;3.60;;;;;;;22.88;50.20;100648.22;5074784;28;20230;-74
2022/07/25 00:40:13;;;;;;;4.03;3.50;;;;;;;22.86;49.40;100669.59;5075115;28;20220;-74
2022/07/25 00:42:39;;;;;;;3.63;3.43;;;;;;;22.88;49.41;100661.53;5075643;28;20331;-74
2022/07/25 00:45:08;;;;;;;4.30;3.90;;;;;;;22.91;48.71;100686.13;5075090;28;20206;-74
2022/07/25 00:47:34;;;;;;;3.60;3.40;;;;;;;22.93;47.62;100675.38;5074873;28;20341;-74
2022/07/25 00:50:00;;;;;;;3.37;3.17;;;;;;;22.94;48.63;100682.41;5075133;28;20568;-74
2022/07/25 00:52:27;;;;;;;3.60;3.30;;;;;;;22.93;48.82;100675.38;5074607;28;20266;-74
2022/07/25 00:54:55;;;;;;;3.80;3.50;;;;;;;22.92;49.27;100671.00;5074928;28;20209;-74
2022/07/25 00:57:22;;;;;;;5.23;3.50;;;;;;;22.92;49.02;100684.31;5075052;28;20264;-74
2022/07/25 00:59:48;;;;;;;3.73;3.43;;;;;;;22.91;48.29;100672.81;5075060;28;20225;-74
2022/07/25 01:02:16;;;;;;;3.43;3.20;;;;;;;22.92;48.00;100679.00;5075015;28;20217;-74
2022/07/25 01:04:42;;;;;;;5.23;3.37;;;;;;;22.94;48.04;100682.41;5074389;28;20206;-73
2022/07/25 01:07:09;;;;;;;3.30;3.10;;;;;;;22.88;48.53;100683.66;5074292;28;20197;-74
2022/07/25 01:09:36;;;;;;;3.70;3.40;;;;;;;22.86;48.77;100655.44;5074627;28;20212;-74
2022/07/25 01:12:03;;;;;;;3.37;3.17;;;;;;;22.89;48.44;100664.06;5074595;28;20654;-74
2022/07/25 01:14:30;;;;;;;4.07;3.77;;;;;;;22.86;49.70;100639.47;5074979;28;20268;-74
2022/07/25 01:16:56;;;;;;;3.63;3.33;;;;;;;22.86;49.39;100624.34;5074153;28;20204;-74
2022/07/25 01:19:24;;;;;;;3.47;3.20;;;;;;;22.79;49.28;100642.56;5074509;28;20220;-74
2022/07/25 01:21:52;;;;;;;3.67;3.30;;;;;;;22.82;48.58;100635.31;5074358;28;20220;-74
2022/07/25 01:24:18;;;;;;;3.20;2.93;;;;;;;22.77;48.35;100659.56;5074277;28;20250;-74
2022/07/25 01:26:45;;;;;;;3.77;3.20;;;;;;;22.75;48.64;100659.66;5074270;28;20294;-74
2022/07/25 01:29:11;;;;;;;4.10;3.80;;;;;;;22.77;48.59;100652.47;5073700;28;20225;-74
2022/07/25 01:31:37;;;;;;;3.70;3.40;;;;;;;22.76;50.07;100625.94;5074409;28;20205;-74
2022/07/25 01:34:04;;;;;;;3.60;3.40;;;;;;;22.68;51.83;100567.06;5074222;28;20272;-74
2022/07/25 01:36:30;;;;;;;4.50;3.23;;;;;;;22.64;52.05;100544.28;5073991;28;20258;-74
2022/07/25 01:38:58;;;;;;;3.37;3.17;;;;;;;22.57;52.91;100520.72;5073657;28;20225;-74
2022/07/25 01:41:24;;;;;;;4.30;4.00;;;;;;;22.54;53.39;100526.25;5074223;28;20201;-74
2022/07/25 01:43:51;;;;;;;3.87;3.47;;;;;;;22.39;53.84;100504.19;5074288;28;20205;-74
2022/07/25 01:46:17;;;;;;;3.63;3.40;;;;;;;22.31;53.92;100489.72;5073773;28;20201;-74
2022/07/25 01:48:44;;;;;;;6.63;3.60;;;;;;;22.27;54.33;100462.47;5073740;28;20278;-74
2022/07/25 01:51:10;;;;;;;5.57;3.00;;;;;;;22.23;53.96;100484.03;5074145;28;20209;-74
2022/07/25 01:53:37;;;;;;;3.40;2.93;;;;;;;22.20;54.10;100485.94;5073645;28;20255;-74
2022/07/25 01:56:06;;;;;;;3.83;3.53;;;;;;;22.21;53.93;100482.31;5073214;28;20209;-74
2022/07/25 01:58:32;;;;;;;3.23;3.03;;;;;;;22.18;54.24;100471.06;5073550;28;20639;-74
2022/07/25 02:00:59;;;;;;;3.47;2.70;;;;;;;22.21;54.31;100460.19;5074010;28;20262;-74
2022/07/25 02:03:31;;;;;;;3.53;3.10;;;;;;;22.19;53.90;100470.94;5073891;28;20204;-74
2022/07/25 02:05:59;;;;;;;3.30;3.10;;;;;;;22.21;54.01;100476.16;5073327;28;20621;-74
2022/07/25 02:08:26;;;;;;;3.67;3.47;;;;;;;22.17;53.71;100466.69;5073362;28;20197;-74
2022/07/25 02:10:53;;;;;;;3.07;2.67;;;;;;;22.10;54.68;100460.94;5073681;28;20216;-74
2022/07/25 02:13:21;;;;;;;3.30;3.00;;;;;;;22.12;48.76;100516.63;5073608;28;20223;-74
2022/07/25 02:15:48;;;;;;;3.37;3.17;;;;;;;22.20;52.18;100546.25;5073285;28;20201;-74
2022/07/25 02:18:14;;;;;;;3.33;3.13;;;;;;;22.25;51.85;100516.72;5073216;28;20274;-74
2022/07/25 02:20:41;;;;;;;3.00;2.80;;;;;;;22.22;51.34;100536.38;5073041;28;20835;-74
2022/07/25 02:23:08;;;;;;;3.40;3.20;;;;;;;22.25;51.89;100525.53;5073310;28;20260;-74
2022/07/25 02:25:35;;;;;;;2.93;2.70;;;;;;;22.24;49.29;100486.63;5073147;28;20615;-74
2022/07/25 02:28:01;;;;;;;3.37;3.03;;;;;;;22.25;50.74;100545.97;5073225;28;20251;-74
2022/07/25 02:30:29;;;;;;;3.10;2.90;;;;;;;22.25;51.23;100532.69;5072973;28;20777;-74
2022/07/25 02:32:55;;;;;;;3.30;3.00;;;;;;;22.25;51.42;100517.56;5072767;28;20614;-74
2022/07/25 02:35:22;;;;;;;3.27;3.00;;;;;;;22.26;50.65;100484.72;5072918;28;20205;-74
2022/07/25 02:37:49;;;;;;;2.97;2.77;;;;;;;22.14;50.88;100517.38;5072684;28;20220;-73
2022/07/25 02:40:15;;;;;;;3.30;3.00;;;;;;;22.14;50.95;100547.50;5071784;28;20638;-74
2022/07/25 02:42:42;;;;;;;3.53;2.60;;;;;;;22.14;50.07;100518.25;5072914;28;20205;-74
2022/07/25 02:45:09;;;;;;;3.10;2.90;;;;;;;22.18;51.59;100521.56;5072555;28;20201;-74
2022/07/25 02:47:37;;;;;;;3.17;2.97;;;;;;;22.09;50.41;100512.38;5072501;28;20213;-74
2022/07/25 02:50:04;;;;;;;3.37;3.07;;;;;;;22.04;49.44;100525.16;5072820;28;20232;-74
2022/07/25 02:52:30;;;;;;;3.83;3.43;;;;;;;22.10;50.80;100526.53;5072608;28;20318;-74
2022/07/25 02:54:57;;;;;;;2.90;2.70;;;;;;;22.10;47.74;100582.34;5072431;28;20265;-74
2022/07/25 02:57:23;;;;;;;3.07;2.87;;;;;;;22.19;48.99;100598.56;5072371;28;20258;-74
2022/07/25 02:59:50;;;;;;;3.23;2.93;;;;;;;22.28;49.46;100556.41;5072829;28;20229;-74
2022/07/25 03:02:16;;;;;;;3.00;2.80;;;;;;;22.28;48.28;100585.66;5072369;28;20627;-74
2022/07/25 03:04:44;;;;;;;3.23;3.00;;;;;;;22.28;47.45;100589.19;5072295;28;20205;-74
2022/07/25 03:07:10;;;;;;;2.90;2.70;;;;;;;22.30;47.56;100575.75;5072141;28;20197;-74
2022/07/25 03:09:37;;;;;;;3.20;3.00;;;;;;;22.32;48.24;100590.69;5072270;28;20212;-74
2022/07/25 03:12:04;;;;;;;3.27;2.97;;;;;;;22.35;49.09;100563.88;5072541;28;20215;-74
2022/07/25 03:14:30;;;;;;;3.17;2.97;;;;;;;22.31;48.57;100554.38;5072415;28;20208;-74
2022/07/25 03:16:57;;;;;;;3.07;2.80;;;;;;;22.32;47.60;100581.81;5071982;28;20209;-74
2022/07/25 03:19:23;;;;;;;2.73;2.53;;;;;;;22.31;48.08;100586.31;5072310;28;20228;-74
2022/07/25 03:21:51;;;;;;;2.77;2.57;;;;;;;22.31;48.76;100572.16;5072208;28;20201;-73
2022/07/25 03:24:18;;;;;;;5.67;2.77;;;;;;;22.26;48.16;100580.44;5072285;28;20233;-74
2022/07/25 03:26:44;;;;;;;3.33;3.13;;;;;;;22.24;49.19;100574.38;5071716;28;20205;-74
2022/07/25 03:29:11;;;;;;;3.23;2.93;;;;;;;22.21;47.93;100572.72;5072181;28;20221;-74
2022/07/25 03:31:38;;;;;;;3.27;3.03;;;;;;;22.16;48.55;100568.66;5072053;28;20744;-74
2022/07/25 03:34:05;;;;;;;3.30;3.10;;;;;;;22.10;48.05;100572.59;5072375;28;20205;-74
2022/07/25 03:36:31;;;;;;;3.40;3.10;;;;;;;22.15;49.55;100556.34;5071561;28;20670;-74
2022/07/25 03:38:59;;;;;;;3.17;2.97;;;;;;;22.01;48.67;100544.78;5071432;28;20224;-74
2022/07/25 03:41:26;;;;;;;3.23;2.83;;;;;;;22.00;48.96;100531.59;5071898;28;20268;-74
2022/07/25 03:43:52;;;;;;;3.27;3.07;;;;;;;22.02;49.17;100542.97;5071829;28;20550;-74
2022/07/25 03:46:19;;;;;;;2.77;2.57;;;;;;;22.08;50.38;100515.13;5071314;28;20205;-74
2022/07/25 03:48:45;;;;;;;2.83;2.73;;;;;;;22.10;50.26;100486.63;5071817;28;20233;-74
2022/07/25 03:51:11;;;;;;;2.80;2.60;;;;;;;22.09;51.24;100472.50;5071880;28;20204;-74
2022/07/25 03:56:20;;;;;;;3.00;2.80;;;;;;;22.02;52.11;100423.34;5070970;28;20255;-74
2022/07/25 03:58:46;;;;;;;2.87;2.70;;;;;;;21.98;51.72;100432.47;5071771;28;20278;-74
2022/07/25 04:01:13;;;;;;;3.00;2.80;;;;;;;21.95;52.36;100432.72;5071698;28;20208;-74
2022/07/25 04:03:39;;;;;;;3.03;2.83;;;;;;;21.89;52.48;100419.81;5071625;28;20666;-74
2022/07/25 04:06:06;;;;;;;2.90;2.70;;;;;;;21.81;52.76;100407.88;5071133;28;20208;-74
2022/07/25 04:08:32;;;;;;;3.70;3.40;;;;;;;21.74;53.26;100408.41;5071210;28;20197;-74
2022/07/25 04:10:59;;;;;;;4.03;3.63;;;;;;;21.78;51.28;100408.13;5071803;28;20208;-74
2022/07/25 04:13:26;;;;;;;4.17;3.03;;;;;;;21.71;51.24;100445.81;5071792;28;20205;-74
2022/07/25 04:15:53;;;;;;;3.50;3.27;;;;;;;21.75;52.25;100418.09;5071346;28;20258;-74
2022/07/25 04:18:19;;;;;;;3.37;3.17;;;;;;;21.82;52.64;100406.06;5071513;28;20224;-74
2022/07/25 04:20:46;;;;;;;3.50;3.20;;;;;;;21.83;50.53;100437.03;5071596;28;20261;-74
2022/07/25 04:23:12;;;;;;;2.93;2.83;;;;;;;21.89;51.41;100431.31;5071066;28;20204;-74
2022/07/25 04:25:39;;;;;;;3.10;2.90;;;;;;;21.90;52.20;100413.53;5070978;28;20208;-74
2022/07/25 04:28:05;;;;;;;4.23;3.07;;;;;;;21.96;53.51;100373.25;5071790;28;20208;-74
2022/07/25 04:30:33;;;;;;;3.17;2.97;;;;;;;22.00;53.30;100357.03;5071563;28;20294;-74
2022/07/25 04:33:00;;;;;;;3.40;3.20;;;;;;;22.01;53.15;100366.69;5071735;28;20254;-74
2022/07/25 04:35:26;;;;;;;5.80;2.77;;;;;;;22.03;53.15;100361.28;5071314;28;20212;-74
2022/07/25 04:37:53;;;;;;;3.70;3.40;;;;;;;22.01;54.74;100356.06;5070929;28;20201;-74
2022/07/25 04:40:19;;;;;;;2.80;2.60;;;;;;;22.04;52.73;100346.16;5071426;28;20231;-74
2022/07/25 04:42:46;;;;;;;3.30;3.03;;;;;;;22.13;53.61;100362.34;5071669;28;20262;-73
2022/07/25 04:45:12;;;;;;;3.50;3.20;;;;;;;22.26;50.49;100443.94;5071167;28;20232;-74
2022/07/25 04:47:40;;;;;;;4.80;3.17;;;;;;;22.36;52.59;100391.88;5070807;28;20671;-74
2022/07/25 04:50:08;;;;;;;3.47;3.20;;;;;;;22.38;53.55;100339.41;5071443;28;20221;-74
2022/07/25 04:52:34;;;;;;;3.30;3.00;;;;;;;22.36;52.62;100365.28;5070883;28;20262;-74
2022/07/25 04:55:01;;;;;;;3.20;3.00;;;;;;;22.38;53.15;100425.38;5070843;28;20686;-74
2022/07/25 04:57:27;;;;;;;3.27;3.07;;;;;;;22.39;53.82;100323.31;5071291;28;20263;-74
2022/07/25 04:59:54;;;;;;;4.20;3.87;;;;;;;22.44;53.57;100316.81;5070711;28;20225;-74
2022/07/25 05:02:20;;;;;;;3.27;2.93;;;;;;;22.44;54.33;100292.88;5070962;28;20193;-74
2022/07/25 05:04:48;;;;;;;3.10;2.90;;;;;;;22.43;53.65;100305.34;5073964;28;20197;-74
2022/07/25 05:07:14;;;;;;;3.23;3.03;;;;;;;22.46;53.13;100306.94;5074131;28;20858;-74
2022/07/25 05:09:41;;;;;;;3.10;2.97;;;;;;;22.46;54.03;100305.16;5073956;28;20217;-74
2022/07/25 05:12:08;;;;;;;3.30;3.00;;;;;;;22.41;54.00;100288.66;5074470;28;20197;-74
2022/07/25 05:14:34;;;;;;;3.67;3.37;;;;;;;22.41;54.80;100280.66;5074109;28;20266;-74
2022/07/25 05:17:01;;;;;;;3.77;3.40;;;;;;;22.40;54.03;100276.31;5073879;28;20731;-74
2022/07/25 05:19:27;;;;;;;3.53;3.33;;;;;;;22.39;53.72;100275.44;5073851;28;20690;-74
2022/07/25 05:21:55;;;;;;;3.40;3.20;;;;;;;22.37;52.08;100272.03;5073770;28;20205;-74
2022/07/25 05:24:22;;;;;;;4.07;3.10;;;;;;;22.43;54.11;100297.38;5073917;28;20246;-74
2022/07/25 05:26:48;;;;;;;3.43;3.23;;;;;;;22.47;54.24;100290.03;5073837;28;20197;-74
2022/07/25 05:29:15;;;;;;;3.77;3.47;;;;;;;22.45;53.23;100281.31;5074233;28;20212;-74
2022/07/25 05:31:41;;;;;;;3.60;3.37;;;;;;;22.50;54.52;100281.84;5073891;28;20736;-74
2022/07/25 05:34:08;;;;;;;3.27;3.07;;;;;;;22.48;54.20;100252.69;5073488;28;20197;-73
2022/07/25 05:36:35;;;;;;;3.57;3.27;;;;;;;22.53;54.29;100265.63;5073554;28;20266;-74
2022/07/25 05:39:02;;;;;;;4.07;3.77;;;;;;;22.63;52.97;100308.41;5073532;28;20270;-74
2022/07/25 05:41:29;;;;;;;4.40;4.20;;;;;;;22.74;52.14;100311.16;5073557;28;20659;-74
2022/07/25 05:43:55;;;;;;;4.30;4.00;;;;;;;22.84;52.86;100304.19;5073696;28;20686;-74
2022/07/25 05:46:22;;;;;;;4.33;4.03;;;;;;;22.90;53.14;100303.75;5073224;28;20209;-74
2022/07/25 05:48:48;;;;;;;3.73;3.50;;;;;;;22.95;52.97;100301.63;5073222;28;20251;-74
2022/07/25 05:51:15;;;;;;;3.77;3.53;;;;;;;23.03;51.99;100308.19;5073746;28;20266;-74
2022/07/25 05:53:41;;;;;;;4.23;3.93;;;;;;;23.11;49.02;100343.97;5073614;28;20205;-74
2022/07/25 05:56:10;;;;;;;4.17;3.97;;;;;;;23.22;50.26;100369.81;5073320;28;20224;-74
2022/07/25 05:58:39;;;;;;;4.90;4.50;;;;;;;23.32;49.47;100367.31;5073348;28;20221;-74
2022/07/25 06:01:06;;;;;;;4.13;3.70;;;;;;;23.37;50.01;100355.38;5073283;28;21558;-74
2022/07/25 06:03:33;;;;;;;4.33;3.93;;;;;;;23.46;50.53;100369.81;5070910;28;20206;-74
2022/07/25 06:06:00;;;;;;;4.33;4.07;;;;;;;23.55;49.68;100377.13;5073157;28;20295;-74
2022/07/25 06:08:27;;;;;;;4.90;4.00;;;;;;;23.71;48.08;100384.84;5072399;28;20687;-73
2022/07/25 06:10:54;;;;;;;4.17;3.90;;;;;;;23.90;47.60;100423.47;5073505;28;20573;-74
2022/07/25 06:13:22;;;;;;;4.90;4.47;;;;;;;24.03;47.83;100437.56;5072701;28;20663;-74
2022/07/25 06:15:48;;;;;;;5.30;4.90;;;;;;;24.13;47.31;100430.56;5072626;28;20204;-74
2022/07/25 06:18:14;;;;;;;5.50;5.10;;;;;;;24.24;47.80;100435.09;5072868;28;20196;-74
2022/07/25 06:20:41;;;;;;;4.80;4.43;;;;;;;24.34;47.40;100441.44;5072832;28;20683;-74
2022/07/25 06:23:07;;;;;;;5.20;4.90;;;;;;;24.50;46.11;100467.81;5072782;28;20269;-74
2022/07/25 06:25:34;;;;;;;5.20;4.80;;;;;;;24.67;44.96;100490.53;5072547;28;20196;-74
2022/07/25 06:28:01;;;;;;;5.27;4.87;;;;;;;24.84;44.91;100491.91;5072851;28;20204;-74
2022/07/25 06:30:29;;;;;;;5.10;4.70;;;;;;;24.91;44.29;100509.13;5072673;28;20219;-74
2022/07/25 06:32:55;;;;;;;5.10;4.70;;;;;;;25.01;45.33;100519.94;5072672;28;20193;-74
2022/07/25 06:35:22;;;;;;;5.47;5.03;;;;;;;25.20;43.56;100532.72;5072717;28;20198;-74
2022/07/25 06:37:49;;;;;;;5.47;5.07;;;;;;;25.29;44.00;100518.66;5072425;28;20257;-74
2022/07/25 06:40:15;;;;;;;5.07;4.77;;;;;;;25.36;44.12;100527.03;5072428;28;20220;-74
2022/07/25 06:42:44;;;;;;;5.53;5.10;;;;;;;25.42;45.01;100512.31;5070707;28;20220;-74
2022/07/25 06:45:11;;;;;;;5.43;5.13;;;;;;;25.44;44.76;100491.69;5071806;28;20200;-74
2022/07/25 06:47:43;;;;;;;5.50;5.20;;;;;;;25.53;43.79;100501.59;5072399;28;20266;-75
2022/07/25 06:50:12;;;;;;;5.60;5.17;;;;;;;25.60;45.81;100476.09;5072333;28;20264;-74
2022/07/25 06:52:40;;;;;;;5.07;4.77;;;;;;;25.65;45.25;100457.84;5072244;28;20203;-75
2022/07/25 06:55:08;;;;;;;5.37;5.03;;;;;;;25.75;43.88;100485.53;5071838;28;20211;-74
2022/07/25 06:57:35;;;;;;;8.17;5.73;;;;;;;25.88;43.52;100505.91;5072207;28;20197;-75
2022/07/25 07:00:05;;;;;;;5.97;5.47;;;;;;;25.93;43.96;100506.41;5072025;28;20228;-74
2022/07/25 07:02:31;;;;;;;6.27;5.80;;;;;;;25.98;45.44;100465.91;5069461;28;20241;-74
2022/07/25 07:04:59;;;;;;;6.20;5.80;;;;;;;26.01;43.93;100490.59;5071601;28;20204;-74
2022/07/25 07:07:25;;;;;;;5.00;4.70;;;;;;;26.17;42.99;100506.19;5072000;28;20212;-74
2022/07/25 07:09:52;;;;;;;5.87;5.37;;;;;;;26.28;42.53;100540.09;5068646;28;20759;-74
2022/07/25 07:12:18;;;;;;;5.30;4.93;;;;;;;26.39;42.16;100558.78;5072010;28;20201;-74
2022/07/25 07:14:45;;;;;;;5.97;5.57;;;;;;;26.49;41.71;100548.16;5071619;28;20204;-74
2022/07/25 07:17:11;;;;;;;5.77;5.37;;;;;;;26.57;42.33;100551.03;5071533;28;20253;-74
2022/07/25 07:19:42;;;;;;;6.10;5.70;;;;;;;26.61;41.55;100544.47;5071556;28;20227;-74
2022/07/25 07:22:10;;;;;;;6.30;5.90;;;;;;;26.64;42.44;100544.22;5071542;28;20227;-75
2022/07/25 07:24:36;;;;;;;6.20;5.80;;;;;;;26.64;41.51;100530.81;5071465;28;20552;-77
2022/07/25 07:27:03;;;;;;;6.00;5.60;;;;;;;26.69;41.63;100519.72;5071119;28;20719;-74
2022/07/25 07:29:30;;;;;;;6.47;5.97;;;;;;;26.80;41.17;100532.16;5071554;28;20216;-74
2022/07/25 07:31:56;;;;;;;6.33;5.93;;;;;;;26.98;41.50;100546.66;5071420;28;20228;-74
2022/07/25 07:34:22;;;;;;;6.23;5.80;;;;;;;27.15;40.64;100553.22;5071944;28;20250;-74
2022/07/25 07:36:49;;;;;;;5.90;5.50;;;;;;;27.36;40.48;100573.84;5071253;28;20262;-74
2022/07/25 07:39:17;;;;;;;6.50;6.10;;;;;;;27.45;40.44;100579.25;5070632;28;20645;-74
2022/07/25 07:41:44;;;;;;;6.40;6.00;;;;;;;27.51;40.61;100577.81;5071897;28;20254;-74
2022/07/25 07:44:10;;;;;;;7.27;5.80;;;;;;;27.59;40.07;100575.34;5071479;28;20659;-74
2022/07/25 07:46:37;;;;;;;6.57;6.17;;;;;;;27.71;39.35;100598.38;5070892;28;20201;-74
2022/07/25 07:49:03;;;;;;;6.60;5.97;;;;;;;27.86;39.57;100596.16;5071409;28;20266;-74
2022/07/25 07:51:29;;;;;;;7.40;6.73;;;;;;;27.91;39.17;100585.06;5071102;28;20193;-74
2022/07/25 07:56:41;;;;;;;6.53;6.13;;;;;;;28.28;38.56;100598.66;5069244;28;20290;-75
2022/07/25 07:59:08;;;;;;;6.80;6.33;;;;;;;28.38;38.68;100601.34;5071381;28;20227;-74
2022/07/25 08:01:34;;;;;;;7.07;6.67;;;;;;;28.55;37.76;100601.69;5071020;28;20946;-74
2022/07/25 08:04:01;;;;;;;7.63;7.10;;;;;;;28.73;37.54;100634.06;5071703;28;20197;-77
2022/07/25 08:06:27;;;;;;;7.30;6.80;;;;;;;28.73;37.56;100634.88;5074055;28;20234;-79
2022/07/25 08:08:54;;;;;;;6.87;6.47;;;;;;;28.73;37.50;100642.13;5071140;28;20224;-75
2022/07/25 08:11:21;;;;;;;6.97;6.57;;;;;;;28.71;37.10;100644.94;5071206;28;20322;-75
2022/07/25 08:13:48;;;;;;;6.80;6.30;;;;;;;28.73;38.56;100609.88;5070917;28;20247;-75
2022/07/25 08:16:15;;;;;;;6.87;6.43;;;;;;;28.73;37.33;100624.16;5068504;28;20250;-75
2022/07/25 08:18:41;;;;;;;7.67;6.97;;;;;;;28.88;37.49;100638.84;5070982;28;20266;-75
2022/07/25 08:21:08;;;;;;;7.20;6.70;;;;;;;28.94;37.71;100626.69;5070929;28;20700;-75
2022/07/25 08:23:37;;;;;;;7.67;6.97;;;;;;;28.91;37.30;100611.66;5070347;28;20568;-75
2022/07/25 08:26:04;;;;;;;7.33;6.83;;;;;;;28.90;37.43;100619.91;5071028;28;20193;-75
2022/07/25 08:28:31;;;;;;;7.53;7.03;;;;;;;28.92;37.78;100623.28;5070740;28;20558;-75
2022/07/25 08:30:59;;;;;;;6.63;6.33;;;;;;;29.00;37.07;100609.97;5068453;28;20193;-75
2022/07/25 08:33:25;;;;;;;7.00;6.60;;;;;;;29.05;36.96;100629.19;5071102;28;20197;-75
2022/07/25 08:35:54;;;;;;;7.40;6.90;;;;;;;29.14;36.96;100630.22;5070663;28;20209;-75
2022/07/25 08:38:21;;;;;;;7.50;7.00;;;;;;;29.13;37.12;100622.28;5072113;28;20197;-75
2022/07/25 08:40:48;;;;;;;7.80;7.17;;;;;;;29.14;36.68;100632.03;5073684;28;20224;-75
2022/07/25 08:43:15;;;;;;;7.17;6.67;;;;;;;29.14;37.05;100626.66;5074892;28;20197;-75
2022/07/25 08:45:45;;;;;;;7.07;6.67;;;;;;;29.21;36.93;100595.50;5074775;28;20197;-75
2022/07/25 08:48:13;;;;;;;7.70;7.27;;;;;;;29.25;37.23;100621.09;5074673;28;20244;-75
2022/07/25 08:50:40;;;;;;;7.20;6.80;;;;;;;29.31;37.28;100615.16;5074530;28;20221;-75
2022/07/25 08:53:07;;;;;;;7.77;7.07;;;;;;;29.42;36.87;100601.53;5074544;28;20231;-75
2022/07/25 08:55:33;;;;;;;7.03;6.63;;;;;;;29.52;36.10;100641.00;5074504;28;20201;-75
2022/07/25 08:58:00;;;;;;;7.80;7.13;;;;;;;29.57;36.67;100623.41;5074769;28;20628;-75
2022/07/25 09:00:28;;;;;;;12.33;10.80;;;;;;;29.59;37.88;100601.72;5074126;28;20220;-75
2022/07/25 09:02:57;;;;;;;7.57;7.10;;;;;;;29.77;37.60;100589.22;5074166;28;20581;-75
2022/07/25 09:05:26;;;;;;;8.30;7.40;;;;;;;29.80;36.67;100578.16;5074150;28;20197;-75
2022/07/25 09:07:55;;;;;;;7.47;6.97;;;;;;;29.77;36.00;100613.44;5073798;28;20193;-74
2022/07/25 09:10:23;;;;;;;9.07;8.27;;;;;;;29.82;36.87;100588.75;5074291;28;20251;-75
2022/07/25 09:12:54;;;;;;;6.90;6.50;;;;;;;29.90;36.12;100549.31;5074412;28;20642;-75
2022/07/25 09:15:26;;;;;;;8.00;7.40;;;;;;;30.08;37.11;100580.81;5071355;28;20205;-75
2022/07/25 09:17:53;;;;;;;8.60;7.67;;;;;;;30.18;35.46;100613.03;5074198;28;20262;-75
2022/07/25 09:20:20;;;;;;;8.17;7.67;;;;;;;30.33;35.82;100621.47;5074042;28;20272;-75
2022/07/25 09:22:49;;;;;;;7.17;6.73;;;;;;;30.36;35.76;100599.63;5073943;28;20215;-75
2022/07/25 09:25:24;;;;;;;7.17;6.77;;;;;;;30.35;34.83;100623.03;5073459;28;20274;-75
2022/07/25 09:27:50;;;;;;;8.20;7.70;;;;;;;30.33;35.93;100611.56;5074078;28;20257;-75
2022/07/25 09:30:17;;;;;;;8.37;7.77;;;;;;;30.45;35.93;100602.25;5073556;28;20225;-75
2022/07/25 09:32:44;;;;;;;7.37;6.90;;;;;;;30.49;35.22;100611.72;5073889;28;20211;-75
2022/07/25 09:35:11;;;;;;;8.27;7.60;;;;;;;30.65;35.64;100597.53;5073410;28;20207;-75
2022/07/25 09:37:38;;;;;;;8.07;7.60;;;;;;;30.74;36.18;100593.03;5073429;28;20211;-74
2022/07/25 09:40:14;;;;;;;7.97;7.50;;;;;;;30.81;35.47;100595.97;5073412;28;20232;-75
2022/07/25 09:42:41;;;;;;;8.20;7.70;;;;;;;30.74;34.85;100611.06;5071648;28;20279;-75
2022/07/25 09:45:11;;;;;;;8.10;7.60;;;;;;;30.83;35.40;100610.97;5073181;28;20291;-75
2022/07/25 09:47:49;;;;;;;8.20;7.70;;;;;;;30.87;35.54;100603.44;5070816;28;20266;-75
2022/07/25 09:50:16;;;;;;;8.60;8.10;;;;;;;30.72;35.02;100608.50;5073152;28;20224;-75
2022/07/25 09:52:44;;;;;;;8.10;7.60;;;;;;;30.59;34.61;100603.53;5073413;28;20219;-75
2022/07/25 09:55:14;;;;;;;8.67;8.07;;;;;;;30.63;35.58;100583.38;5072751;28;20666;-75
2022/07/25 09:57:43;;;;;;;7.97;7.47;;;;;;;30.71;35.78;100577.19;5071298;28;20201;-75
2022/07/25 10:00:11;;;;;;;8.40;7.83;;;;;;;30.86;35.49;100575.63;5073187;28;20765;-75
2022/07/25 10:02:45;;;;;;;7.70;7.20;;;;;;;30.93;34.68;100608.22;5070578;28;20205;-75
2022/07/25 10:05:15;;;;;;;8.20;7.70;;;;;;;30.84;34.88;100598.34;5072852;28;20197;-75
2022/07/25 10:07:45;;;;;;;8.27;7.73;;;;;;;30.87;35.72;100584.56;5072559;28;20205;-75
2022/07/25 10:10:24;;;;;;;7.80;7.40;;;;;;;30.95;34.78;100583.81;5072521;28;20217;-75
2022/07/25 10:13:05;;;;;;;8.70;8.10;;;;;;;31.03;34.66;100597.31;5072389;28;20203;-75
2022/07/25 10:15:47;;;;;;;7.93;7.43;;;;;;;30.96;34.38;100575.56;5072033;28;20207;-75
2022/07/25 10:18:15;;;;;;;7.83;7.33;;;;;;;31.07;35.49;100572.56;5072573;28;20196;-75
2022/07/25 10:20:42;;;;;;;8.00;7.53;;;;;;;31.04;35.03;100581.00;5072844;28;20221;-75
2022/07/25 10:23:24;;;;;;;8.10;7.70;;;;;;;31.11;34.90;100554.22;5072884;28;20597;-75
2022/07/25 10:26:02;;;;;;;8.70;8.10;;;;;;;31.02;34.72;100565.97;5071196;28;20212;-75
2022/07/25 10:28:37;;;;;;;8.73;8.13;;;;;;;31.08;35.51;100555.41;5071688;28;20201;-75
2022/07/25 10:31:15;;;;;;;8.23;7.63;;;;;;;31.10;34.97;100551.69;5070780;28;20207;-76
2022/07/25 10:33:42;;;;;;;7.57;7.07;;;;;;;31.07;34.23;100569.03;5072679;28;20201;-75
2022/07/25 10:36:10;;;;;;;7.43;7.03;;;;;;;31.16;33.75;100572.63;5072004;28;20204;-76
2022/07/25 10:38:39;;;;;;;7.63;7.10;;;;;;;31.26;35.06;100565.28;5071896;28;20199;-75
2022/07/25 10:41:09;;;;;;;7.63;7.13;;;;;;;31.27;33.61;100575.06;5073141;28;20228;-75
2022/07/25 10:43:37;;;;;;;7.20;6.70;;;;;;;31.24;33.69;100562.75;5072982;28;20204;-75
2022/07/25 10:46:12;;;;;;;7.33;6.93;;;;;;;31.36;34.31;100565.13;5072302;28;20211;-75
2022/07/25 10:48:38;;;;;;;7.13;6.73;;;;;;;31.39;33.77;100570.22;5072600;28;20265;-75
2022/07/25 10:51:07;;;;;;;6.73;6.43;;;;;;;31.51;33.20;100579.75;5072318;28;20201;-76
2022/07/25 10:53:35;;;;;;;7.53;7.00;;;;;;;31.77;34.01;100571.56;5072253;28;20201;-76
2022/07/25 10:56:14;;;;;;;7.07;6.67;;;;;;;31.83;32.40;100583.56;5069250;28;20200;-76
2022/07/25 10:58:47;;;;;;;7.60;7.10;;;;;;;32.03;32.55;100605.75;5069756;28;20213;-76
2022/07/25 11:01:14;;;;;;;6.77;6.37;;;;;;;32.25;33.33;100591.63;5071290;28;20270;-76
2022/07/25 11:03:43;;;;;;;6.73;6.27;;;;;;;32.31;32.18;100619.84;5069410;28;20227;-76
2022/07/25 11:06:11;;;;;;;6.80;6.30;;;;;;;32.39;32.11;100605.47;5070574;28;20651;-76
2022/07/25 11:08:37;;;;;;;6.53;6.03;;;;;;;32.53;32.63;100596.72;5071920;28;20201;-76
2022/07/25 11:11:04;;;;;;;6.83;6.43;;;;;;;32.48;31.65;100619.88;5071745;28;20235;-76
2022/07/25 11:13:36;;;;;;;6.50;6.13;;;;;;;32.41;30.41;100652.97;5072556;28;20212;-76
2022/07/25 11:16:03;;;;;;;6.57;6.17;;;;;;;32.42;31.09;100630.31;5071977;28;20666;-76
2022/07/25 11:18:35;;;;;;;6.90;6.43;;;;;;;32.41;30.44;100614.28;5072191;28;20212;-75
2022/07/25 11:21:03;;;;;;;6.67;6.17;;;;;;;32.38;31.36;100623.56;5072427;28;20225;-76
2022/07/25 11:23:29;;;;;;;6.87;6.30;;;;;;;32.25;31.05;100613.25;5071966;28;20232;-76
2022/07/25 11:26:10;;;;;;;6.93;6.43;;;;;;;32.12;31.46;100603.94;5071657;28;20209;-76
2022/07/25 11:28:43;;;;;;;6.67;6.33;;;;;;;32.22;32.01;100578.44;5072269;28;20197;-76
2022/07/25 11:31:09;;;;;;;7.00;6.50;;;;;;;32.29;31.45;100572.38;5071878;28;20562;-76